createdAt,value
2022-08-22T00:01:13.541Z,90.15
2022-08-22T00:02:59.281Z,89.24
2022-08-22T00:02:59.808Z,66.89
2022-08-22T00:02:59.810Z,75.62
2022-08-22T00:03:03.386Z,74.07
2022-08-22T00:04:03.091Z,91.15
2022-08-22T00:06:52.783Z,91.41
2022-08-22T00:09:31.761Z,92.91
2022-08-22T00:12:04.011Z,92.20
2022-08-22T00:14:58.663Z,92.57
2022-08-22T00:17:37.312Z,91.06
2022-08-22T00:20:06.170Z,91.38
2022-08-22T00:22:55.782Z,92.31
2022-08-22T00:25:26.078Z,94.04
2022-08-22T00:28:01.629Z,92.61
2022-08-22T00:30:30.383Z,92.93
2022-08-22T00:33:02.522Z,92.44
2022-08-22T00:35:41.685Z,91.88
2022-08-22T00:38:28.556Z,91.72
2022-08-22T00:41:07.567Z,91.14
2022-08-22T00:44:16.212Z,91.45
2022-08-22T00:46:57.726Z,91.25
2022-08-22T00:49:41.834Z,93.20
2022-08-22T00:52:18.430Z,92.79
2022-08-22T00:55:05.694Z,91.88
2022-08-22T00:57:49.800Z,93.74
2022-08-22T01:00:25.009Z,93.52
2022-08-22T01:03:16.452Z,93.06
2022-08-22T01:06:08.513Z,94.16
2022-08-22T01:09:10.781Z,93.07
2022-08-22T01:12:02.061Z,94.16
2022-08-22T01:14:38.558Z,93.47
2022-08-22T01:17:32.008Z,92.11
2022-08-22T01:20:07.242Z,93.17
2022-08-22T01:22:36.474Z,93.08
2022-08-22T01:25:22.400Z,94.01
2022-08-22T01:28:16.535Z,93.96
2022-08-22T01:31:00.854Z,92.91
2022-08-22T01:34:14.416Z,93.26
2022-08-22T01:36:44.517Z,93.70
2022-08-22T01:39:28.672Z,94.11
2022-08-22T01:41:57.738Z,94.77
2022-08-22T01:44:32.770Z,94.71
2022-08-22T01:47:14.552Z,95.03
2022-08-22T01:49:54.441Z,94.73
2022-08-22T01:52:30.097Z,95.59
2022-08-22T01:55:03.186Z,95.33
2022-08-22T01:57:32.221Z,94.76
2022-08-22T02:00:09.862Z,95.05
2022-08-22T02:02:51.172Z,95.27
2022-08-22T02:05:18.583Z,95.03
2022-08-22T02:07:58.849Z,94.23
2022-08-22T02:10:59.706Z,93.73
2022-08-22T02:13:46.820Z,92.59
2022-08-22T02:16:38.763Z,93.11
2022-08-22T02:19:11.837Z,93.83
2022-08-22T02:22:20.196Z,95.31
2022-08-22T02:24:54.108Z,94.96
2022-08-22T02:27:35.510Z,95.49
2022-08-22T02:30:17.105Z,94.90
2022-08-22T02:33:08.783Z,96.17
2022-08-22T02:35:54.618Z,95.40
2022-08-22T02:38:42.945Z,95.39
2022-08-22T02:41:29.294Z,93.88
2022-08-22T02:44:06.998Z,93.83
2022-08-22T02:46:49.770Z,92.89
2022-08-22T02:49:27.590Z,91.62
2022-08-22T02:52:03.397Z,92.08
2022-08-22T02:54:37.211Z,90.91
2022-08-22T02:57:11.373Z,91.93
2022-08-22T03:00:04.408Z,91.65
2022-08-22T03:02:34.327Z,92.08
2022-08-22T03:05:27.054Z,92.41
2022-08-22T03:08:07.889Z,91.33
2022-08-22T03:10:40.094Z,92.25
2022-08-22T03:13:11.788Z,92.76
2022-08-22T03:16:21.320Z,93.10
2022-08-22T03:18:50.457Z,93.84
2022-08-22T03:21:30.861Z,94.38
2022-08-22T03:24:06.289Z,94.75
2022-08-22T03:26:38.853Z,94.07
2022-08-22T03:29:29.623Z,94.21
2022-08-22T03:32:13.972Z,94.96
2022-08-22T03:34:59.303Z,94.92
2022-08-22T03:37:37.935Z,95.64
2022-08-22T03:40:19.851Z,95.50
2022-08-22T03:42:58.054Z,95.74
2022-08-22T03:45:38.770Z,94.79
2022-08-22T03:48:17.639Z,95.13
2022-08-22T03:51:08.655Z,95.43
2022-08-22T03:54:11.980Z,96.71
2022-08-22T03:56:47.389Z,97.44
2022-08-22T03:59:44.618Z,99.26
2022-08-22T04:02:45.763Z,99.27
2022-08-22T04:05:33.215Z,98.21
2022-08-22T04:08:26.400Z,98.52
2022-08-22T04:11:10.787Z,98.45
2022-08-22T04:14:31.566Z,98.42
2022-08-22T04:17:23.646Z,97.75
2022-08-22T04:20:20.952Z,98.62
2022-08-22T04:23:19.434Z,98.65
2022-08-22T04:25:55.713Z,98.67
2022-08-22T04:28:37.819Z,99.46
2022-08-22T04:31:12.616Z,99.37
2022-08-22T04:33:59.086Z,99.45
2022-08-22T04:36:39.828Z,98.93
2022-08-22T04:39:27.923Z,98.79
2022-08-22T04:42:29.056Z,99.13
2022-08-22T04:45:18.050Z,98.84
2022-08-22T04:47:54.199Z,99.53
2022-08-22T04:50:43.366Z,100.00
2022-08-22T04:53:31.786Z,100.00
2022-08-22T04:56:25.297Z,100.00
2022-08-22T04:59:03.573Z,100.00
2022-08-22T05:02:06.374Z,100.00
2022-08-22T05:04:39.338Z,100.00
2022-08-22T05:07:20.375Z,100.00
2022-08-22T05:09:59.192Z,100.00
2022-08-22T05:12:39.396Z,100.00
2022-08-22T05:15:15.474Z,100.00
2022-08-22T05:17:51.750Z,100.00
2022-08-22T05:20:23.483Z,100.00
2022-08-22T05:22:59.307Z,100.00
2022-08-22T05:25:33.545Z,100.00
2022-08-22T05:28:20.935Z,100.00
2022-08-22T05:30:48.868Z,100.00
2022-08-22T05:33:27.818Z,100.00
2022-08-22T05:36:04.815Z,100.00
2022-08-22T05:38:37.304Z,100.00
2022-08-22T05:41:17.527Z,100.00
2022-08-22T05:43:45.341Z,98.82
2022-08-22T05:46:35.281Z,97.43
2022-08-22T05:49:03.992Z,97.16
2022-08-22T05:51:41.793Z,91.17
2022-08-22T05:54:34.478Z,90.58
2022-08-22T05:57:11.390Z,90.21
2022-08-22T05:59:45.053Z,89.67
2022-08-22T06:02:26.348Z,84.83
2022-08-22T06:04:59.442Z,83.86
2022-08-22T06:07:35.932Z,87.72
2022-08-22T06:10:20.075Z,89.44
2022-08-22T06:13:05.722Z,90.07
2022-08-22T06:15:54.914Z,90.88
2022-08-22T06:18:25.581Z,91.62
2022-08-22T06:21:00.046Z,93.59
2022-08-22T06:23:31.889Z,94.49
2022-08-22T06:26:05.445Z,93.57
2022-08-22T06:28:54.927Z,93.28
2022-08-22T06:31:40.163Z,94.03
2022-08-22T06:34:12.783Z,94.43
2022-08-22T06:36:43.485Z,93.91
2022-08-22T06:39:18.959Z,92.14
2022-08-22T06:41:52.057Z,94.19
2022-08-22T06:44:28.721Z,94.14
2022-08-22T06:46:59.250Z,93.23
2022-08-22T06:49:30.755Z,93.51
2022-08-22T06:52:06.623Z,94.13
2022-08-22T06:54:38.720Z,92.70
2022-08-22T06:57:08.800Z,92.70
2022-08-22T06:59:38.166Z,92.23
2022-08-22T07:02:41.577Z,90.86
2022-08-22T07:05:20.616Z,91.28
2022-08-22T07:07:47.900Z,90.67
2022-08-22T07:10:18.668Z,90.42
2022-08-22T07:12:48.211Z,87.78
2022-08-22T07:15:37.160Z,86.37
2022-08-22T07:18:18.559Z,86.88
2022-08-22T07:20:54.511Z,86.08
2022-08-22T07:23:36.505Z,85.45
2022-08-22T07:26:27.509Z,83.95
2022-08-22T07:28:59.682Z,82.45
2022-08-22T07:31:26.171Z,81.92
2022-08-22T07:34:18.886Z,81.08
2022-08-22T07:36:56.449Z,79.85
2022-08-22T07:39:35.956Z,80.36
2022-08-22T07:42:08.323Z,79.16
2022-08-22T07:44:45.067Z,76.57
2022-08-22T07:47:26.330Z,76.61
2022-08-22T07:50:03.811Z,76.08
2022-08-22T07:52:42.318Z,75.43
2022-08-22T07:55:23.846Z,75.94
2022-08-22T07:57:59.099Z,74.72
2022-08-22T08:00:29.714Z,72.49
2022-08-22T08:03:05.054Z,70.51
2022-08-22T08:05:37.196Z,71.25
2022-08-22T08:08:13.855Z,70.69
2022-08-22T08:10:45.743Z,69.48
2022-08-22T08:13:23.136Z,69.17
2022-08-22T08:15:52.974Z,68.95
2022-08-22T08:18:26.828Z,67.19
2022-08-22T08:21:02.358Z,67.68
2022-08-22T08:23:39.642Z,66.82
2022-08-22T08:26:17.418Z,66.50
2022-08-22T08:28:54.382Z,65.60
2022-08-22T08:31:43.031Z,64.38
2022-08-22T08:34:19.452Z,62.75
2022-08-22T08:36:51.901Z,61.42
2022-08-22T08:39:26.261Z,61.49
2022-08-22T08:42:16.340Z,61.82
2022-08-22T08:45:06.281Z,60.55
2022-08-22T08:48:25.709Z,60.18
2022-08-22T08:51:02.368Z,59.72
2022-08-22T08:53:54.562Z,58.43
2022-08-22T08:56:27.574Z,57.97
2022-08-22T08:59:02.532Z,59.05
2022-08-22T09:01:47.626Z,59.02
2022-08-22T09:04:17.115Z,58.56
2022-08-22T09:07:08.167Z,56.58
2022-08-22T09:10:02.981Z,56.93
2022-08-22T09:13:11.114Z,57.14
2022-08-22T09:15:38.916Z,56.59
2022-08-22T09:18:11.563Z,55.54
2022-08-22T09:21:02.444Z,55.00
2022-08-22T09:23:31.740Z,52.91
2022-08-22T09:26:20.458Z,52.49
2022-08-22T09:29:07.859Z,51.30
2022-08-22T09:32:00.975Z,51.14
2022-08-22T09:34:34.266Z,50.53
2022-08-22T09:37:20.650Z,50.69
2022-08-22T09:40:04.591Z,50.55
2022-08-22T09:42:34.374Z,50.65
2022-08-22T09:45:06.926Z,48.78
2022-08-22T09:47:47.971Z,50.04
2022-08-22T09:50:32.415Z,45.20
2022-08-22T09:53:10.777Z,44.59
2022-08-22T09:56:11.611Z,42.69
2022-08-22T09:59:09.863Z,45.73
2022-08-22T10:02:14.345Z,46.00
2022-08-22T10:05:06.793Z,43.94
2022-08-22T10:07:55.036Z,45.37
2022-08-22T10:10:39.830Z,46.33
2022-08-22T10:13:44.978Z,42.45
2022-08-22T10:16:33.409Z,44.60
2022-08-22T10:19:29.986Z,43.49
2022-08-22T10:22:15.179Z,40.25
2022-08-22T10:25:19.560Z,41.06
2022-08-22T10:28:32.662Z,38.78
2022-08-22T10:31:08.491Z,38.45
2022-08-22T10:33:56.255Z,40.63
2022-08-22T10:37:04.238Z,40.08
2022-08-22T10:39:56.404Z,41.10
2022-08-22T10:42:51.144Z,41.47
2022-08-22T10:45:46.090Z,41.64
2022-08-22T10:48:19.683Z,42.28
2022-08-22T10:50:55.377Z,40.88
2022-08-22T10:53:53.826Z,43.09
2022-08-22T10:56:27.373Z,42.00
2022-08-22T10:59:23.339Z,39.08
2022-08-22T11:02:03.460Z,41.51
2022-08-22T11:04:55.579Z,40.35
2022-08-22T11:07:44.553Z,43.34
2022-08-22T11:10:29.406Z,44.67
2022-08-22T11:13:23.725Z,42.43
2022-08-22T11:16:04.569Z,40.71
2022-08-22T11:19:14.996Z,41.16
2022-08-22T11:21:46.126Z,41.80
2022-08-22T11:24:54.014Z,43.49
2022-08-22T11:28:07.443Z,43.32
2022-08-22T11:31:03.577Z,42.32
2022-08-22T11:33:46.925Z,41.81
2022-08-22T11:36:27.243Z,40.22
2022-08-22T11:39:18.713Z,40.84
2022-08-22T11:42:01.641Z,40.64
2022-08-22T11:44:50.023Z,40.80
2022-08-22T11:47:26.550Z,38.91
2022-08-22T11:50:38.613Z,40.79
2022-08-22T11:53:26.420Z,39.82
2022-08-22T11:56:05.387Z,37.71
2022-08-22T11:58:32.378Z,37.01
2022-08-22T12:01:06.054Z,37.06
2022-08-22T12:03:58.128Z,36.90
2022-08-22T12:06:56.087Z,35.75
2022-08-22T12:09:31.933Z,35.38
2022-08-22T12:12:06.490Z,36.83
2022-08-22T12:14:45.352Z,34.72
2022-08-22T12:17:22.778Z,34.47
2022-08-22T12:20:45.597Z,34.25
2022-08-22T12:23:14.875Z,33.92
2022-08-22T12:26:12.672Z,34.35
2022-08-22T12:29:03.227Z,32.85
2022-08-22T12:31:57.720Z,33.95
2022-08-22T12:34:44.575Z,34.47
2022-08-22T12:37:22.526Z,33.65
2022-08-22T12:40:30.893Z,33.24
2022-08-22T12:43:15.273Z,33.04
2022-08-22T12:46:02.358Z,34.89
2022-08-22T12:48:28.924Z,32.20
2022-08-22T12:51:17.664Z,31.84
2022-08-22T12:53:53.077Z,32.17
2022-08-22T12:56:44.648Z,32.66
2022-08-22T12:59:36.649Z,33.27
2022-08-22T13:02:13.367Z,30.58
2022-08-22T13:04:49.844Z,29.89
2022-08-22T13:07:34.572Z,29.45
2022-08-22T13:10:26.841Z,29.90
2022-08-22T13:12:59.403Z,30.15
2022-08-22T13:15:28.868Z,29.95
2022-08-22T13:18:13.330Z,30.81
2022-08-22T13:20:50.605Z,28.73
2022-08-22T13:23:24.516Z,28.03
2022-08-22T13:26:10.151Z,29.91
2022-08-22T13:32:02.815Z,30.50
2022-08-22T13:34:48.823Z,30.80
2022-08-22T13:37:24.614Z,31.98
2022-08-22T13:39:59.418Z,31.30
2022-08-22T13:42:32.315Z,31.76
2022-08-22T13:45:05.075Z,30.36
2022-08-22T13:47:35.882Z,31.98
2022-08-22T13:50:21.253Z,33.17
2022-08-22T13:52:55.788Z,32.77
2022-08-22T13:55:29.599Z,32.81
2022-08-22T13:58:14.856Z,32.80
2022-08-22T14:01:18.824Z,32.59
2022-08-22T14:03:49.137Z,31.66
2022-08-22T14:06:36.897Z,30.74
2022-08-22T14:09:32.715Z,31.21
2022-08-22T14:12:50.500Z,30.22
2022-08-22T14:15:26.018Z,29.92
2022-08-22T14:18:11.285Z,31.36
2022-08-22T14:20:41.631Z,30.22
2022-08-22T14:23:11.567Z,29.75
2022-08-22T14:25:43.609Z,28.89
2022-08-22T14:28:32.343Z,29.47
2022-08-22T14:31:14.798Z,29.99
2022-08-22T14:33:51.469Z,31.30
2022-08-22T14:36:30.235Z,31.95
2022-08-22T14:39:11.980Z,31.37
2022-08-22T14:41:56.078Z,30.85
2022-08-22T14:45:10.311Z,31.11
2022-08-22T14:47:55.025Z,30.43
2022-08-22T14:50:38.550Z,30.89
2022-08-22T14:53:19.103Z,30.20
2022-08-22T14:56:28.309Z,31.40
2022-08-22T14:59:04.461Z,30.10
2022-08-22T15:01:35.129Z,29.36
2022-08-22T15:04:07.898Z,31.45
2022-08-22T15:06:47.760Z,29.26
2022-08-22T15:09:36.631Z,29.75
2022-08-22T15:12:33.197Z,29.56
2022-08-22T15:15:13.161Z,29.67
2022-08-22T15:17:50.788Z,28.96
2022-08-22T15:20:35.266Z,27.46
2022-08-22T15:23:15.812Z,26.53
2022-08-22T15:25:47.144Z,28.02
2022-08-22T15:28:20.044Z,29.09
2022-08-22T15:30:58.796Z,28.56
2022-08-22T15:33:39.087Z,28.91
2022-08-22T15:36:16.913Z,29.14
2022-08-22T15:39:14.642Z,28.84
2022-08-22T15:41:46.031Z,29.92
2022-08-22T15:44:33.268Z,30.39
2022-08-22T15:47:03.063Z,28.79
2022-08-22T15:49:36.066Z,29.92
2022-08-22T15:52:04.120Z,29.45
2022-08-22T15:54:51.323Z,29.85
2022-08-22T15:57:26.609Z,29.57
2022-08-22T15:59:58.577Z,29.23
2022-08-22T16:02:28.108Z,30.79
2022-08-22T16:05:10.565Z,30.28
2022-08-22T16:07:45.934Z,30.76
2022-08-22T16:10:24.849Z,30.29
2022-08-22T16:13:15.843Z,29.58
2022-08-22T16:15:52.630Z,30.69
2022-08-22T16:18:34.374Z,30.42
2022-08-22T16:21:04.077Z,30.49
2022-08-22T16:23:51.283Z,31.08
2022-08-22T16:26:25.405Z,31.29
2022-08-22T16:29:17.856Z,31.40
2022-08-22T16:31:44.802Z,31.81
2022-08-22T16:34:23.123Z,31.38
2022-08-22T16:36:51.664Z,31.99
2022-08-22T16:39:21.318Z,31.33
2022-08-22T16:41:49.394Z,31.32
2022-08-22T16:44:30.402Z,32.45
2022-08-22T16:47:10.219Z,32.20
2022-08-22T16:50:03.145Z,31.72
2022-08-22T16:52:31.975Z,32.25
2022-08-22T16:55:28.587Z,32.33
2022-08-22T16:58:40.068Z,33.36
2022-08-22T17:01:29.750Z,33.34
2022-08-22T17:04:45.371Z,33.02
2022-08-22T17:07:31.948Z,33.21
2022-08-22T17:10:12.615Z,33.51
2022-08-22T17:13:15.532Z,34.58
2022-08-22T17:16:17.384Z,35.88
2022-08-22T17:18:58.742Z,36.47
2022-08-22T17:21:30.324Z,35.00
2022-08-22T17:24:32.049Z,36.17
2022-08-22T17:27:37.548Z,38.03
2022-08-22T17:30:21.741Z,35.32
2022-08-22T17:32:59.052Z,36.89
2022-08-22T17:35:45.718Z,36.85
2022-08-22T17:38:30.437Z,37.93
2022-08-22T17:40:56.908Z,38.67
2022-08-22T17:43:55.323Z,37.77
2022-08-22T17:46:49.088Z,39.78
2022-08-22T17:49:40.611Z,40.42
2022-08-22T17:52:28.004Z,40.92
2022-08-22T17:54:57.547Z,41.78
2022-08-22T17:57:45.040Z,41.04
2022-08-22T18:00:33.155Z,43.19
2022-08-22T18:03:10.939Z,41.75
2022-08-22T18:05:52.383Z,42.12
2022-08-22T18:11:20.530Z,43.34
2022-08-22T18:13:59.188Z,43.50
2022-08-22T18:16:53.866Z,42.74
2022-08-22T18:19:39.944Z,42.77
2022-08-22T18:22:29.108Z,44.69
2022-08-22T18:25:04.575Z,43.27
2022-08-22T18:27:51.171Z,45.07
2022-08-22T18:30:36.858Z,44.23
2022-08-22T18:33:34.145Z,43.23
2022-08-22T18:36:18.223Z,43.61
2022-08-22T18:38:57.578Z,45.06
2022-08-22T18:41:27.082Z,44.30
2022-08-22T18:43:54.710Z,43.91
2022-08-22T18:46:43.886Z,45.38
2022-08-22T18:49:40.291Z,46.29
2022-08-22T18:52:09.493Z,47.24
2022-08-22T18:54:49.611Z,47.14
2022-08-22T18:57:53.762Z,45.38
2022-08-22T19:00:47.112Z,45.15
2022-08-22T19:03:38.385Z,48.99
2022-08-22T19:06:20.892Z,50.75
2022-08-22T19:09:16.284Z,54.94
2022-08-22T19:11:58.179Z,52.40
2022-08-22T19:14:46.673Z,51.07
2022-08-22T19:18:10.271Z,53.15
2022-08-22T19:20:59.439Z,53.93
2022-08-22T19:23:32.029Z,52.08
2022-08-22T19:26:29.440Z,53.75
2022-08-22T19:29:08.760Z,52.28
2022-08-22T19:31:39.961Z,53.95
2022-08-22T19:34:41.503Z,53.03
2022-08-22T19:37:32.410Z,52.55
2022-08-22T19:40:11.739Z,54.31
2022-08-22T19:42:41.884Z,53.12
2022-08-22T19:45:22.704Z,54.28
2022-08-22T19:48:03.036Z,54.39
2022-08-22T19:50:35.362Z,54.40
2022-08-22T19:53:19.158Z,55.49
2022-08-22T19:56:27.101Z,55.98
2022-08-22T19:59:50.652Z,57.28
2022-08-22T20:02:21.350Z,57.84
2022-08-22T20:05:15.287Z,57.24
2022-08-22T20:08:11.206Z,55.68
2022-08-22T20:10:47.025Z,61.91
2022-08-22T20:13:24.327Z,61.58
2022-08-22T20:16:07.206Z,61.60
2022-08-22T20:19:06.131Z,59.80
2022-08-22T20:21:45.562Z,59.55
2022-08-22T20:24:54.422Z,59.86
2022-08-22T20:27:26.861Z,62.37
2022-08-22T20:30:12.148Z,60.90
2022-08-22T20:32:50.593Z,60.63
2022-08-22T20:35:24.073Z,59.69
2022-08-22T20:38:06.726Z,60.49
2022-08-22T20:40:57.877Z,60.94
2022-08-22T20:43:59.159Z,61.53
2022-08-22T20:47:14.018Z,61.91
2022-08-22T20:49:55.095Z,61.65
2022-08-22T20:52:27.386Z,62.02
2022-08-22T20:55:31.938Z,62.41
2022-08-22T20:58:06.386Z,62.33
2022-08-22T21:00:32.942Z,63.15
2022-08-22T21:03:09.122Z,63.03
2022-08-22T21:05:42.975Z,63.23
2022-08-22T21:08:12.839Z,63.68
2022-08-22T21:11:00.358Z,63.58
2022-08-22T21:13:26.888Z,64.21
2022-08-22T21:16:11.368Z,63.72
2022-08-22T21:18:47.476Z,64.39
2022-08-22T21:21:21.089Z,65.11
2022-08-22T21:24:00.524Z,65.55
2022-08-22T21:26:27.685Z,65.09
2022-08-22T21:29:03.110Z,66.49
2022-08-22T21:32:04.370Z,65.64
2022-08-22T21:34:41.231Z,65.56
2022-08-22T21:37:14.446Z,65.69
2022-08-22T21:39:53.485Z,65.77
2022-08-22T21:42:38.775Z,66.10
2022-08-22T21:45:31.477Z,65.62
2022-08-22T21:47:58.543Z,66.87
2022-08-22T21:50:37.881Z,67.52
2022-08-22T21:53:27.647Z,67.88
2022-08-22T21:56:12.571Z,67.27
2022-08-22T21:58:42.150Z,67.21
2022-08-22T22:01:32.941Z,67.19
2022-08-22T22:04:00.311Z,67.30
2022-08-22T22:06:29.942Z,67.44
2022-08-22T22:08:56.531Z,67.94
2022-08-22T22:11:23.179Z,68.56
2022-08-22T22:13:52.199Z,68.46
2022-08-22T22:16:24.980Z,68.81
2022-08-22T22:18:54.883Z,69.54
2022-08-22T22:21:21.975Z,70.32
2022-08-22T22:23:50.963Z,70.52
2022-08-22T22:26:21.396Z,71.01
2022-08-22T22:28:51.772Z,70.92
2022-08-22T22:31:18.730Z,70.26
2022-08-22T22:33:50.353Z,70.71
2022-08-22T22:36:22.673Z,70.19
2022-08-22T22:38:51.569Z,69.94
2022-08-22T22:41:20.303Z,70.81
2022-08-22T22:43:47.060Z,71.29
2022-08-22T22:46:13.703Z,69.03
2022-08-22T22:48:42.613Z,69.89
2022-08-22T22:51:12.254Z,71.13
2022-08-22T22:53:42.553Z,71.81
2022-08-22T22:56:15.861Z,70.36
2022-08-22T22:58:45.019Z,70.67
2022-08-22T23:01:15.425Z,71.22
2022-08-22T23:03:43.073Z,71.19
2022-08-22T23:06:21.209Z,73.06
2022-08-22T23:08:53.624Z,74.00
2022-08-22T23:11:26.471Z,74.38
2022-08-22T23:13:53.247Z,75.01
2022-08-22T23:16:27.460Z,74.70
2022-08-22T23:18:54.609Z,76.44
2022-08-22T23:21:29.680Z,75.74
2022-08-22T23:23:58.533Z,74.91
2022-08-22T23:26:28.833Z,75.43
2022-08-22T23:28:56.743Z,75.12
2022-08-22T23:31:30.829Z,77.90
2022-08-22T23:34:02.654Z,76.07
2022-08-22T23:36:29.791Z,76.34
2022-08-22T23:38:57.349Z,76.77
2022-08-22T23:41:27.190Z,77.50
2022-08-22T23:43:57.523Z,77.38
2022-08-22T23:46:26.756Z,77.49
2022-08-22T23:48:56.830Z,78.93
2022-08-22T23:51:26.533Z,78.67
2022-08-22T23:53:55.903Z,79.65
2022-08-22T23:56:30.862Z,79.88
2022-08-22T23:58:58.234Z,81.16
